Time;durP1;ratioP1;P1;durP2;ratioP2;P2;SDS_P1;SDS_P2;PMS_P1;PMS_P2;Temp;Humidity;BMP_temperature;BMP_pressure;BME280_temperature;BME280_humidity;BME280_pressure;Samples;Min_cycle;Max_cycle;Signal;HPM_P1;HPM_P2
2021/12/05 00:18:17;;;;;;;10.43;4.45;;;;;;;4.70;100.00;99707.41;5251011;28;20045;-72
2021/12/05 00:23:46;;;;;;;14.80;3.90;;;;;;;4.72;100.00;99704.66;5257933;28;20041;-72
2021/12/05 00:26:20;;;;;;;12.40;4.20;;;;;;;4.69;100.00;99697.13;5253629;28;20104;-72
2021/12/05 00:29:07;;;;;;;17.50;4.40;;;;;;;4.67;100.00;99707.63;5248199;28;20112;-72
2021/12/05 00:31:52;;;;;;;11.70;3.50;;;;;;;4.70;100.00;99714.31;5247749;28;20021;-72
2021/12/05 00:40:21;;;;;;;12.73;4.10;;;;;;;4.54;100.00;99709.50;5255967;28;20060;-72
2021/12/05 01:15:20;;;;;;;14.05;4.88;;;;;;;4.14;100.00;99716.00;5243596;28;20410;-72
2021/12/05 01:20:33;;;;;;;15.38;4.75;;;;;;;4.05;100.00;99705.50;5242989;28;20090;-72
2021/12/05 01:23:13;;;;;;;13.82;4.80;;;;;;;3.96;100.00;99716.56;5258656;28;20017;-73
2021/12/05 01:26:03;;;;;;;14.70;4.90;;;;;;;3.94;100.00;99710.66;5253439;28;20033;-72
2021/12/05 01:36:56;;;;;;;14.90;5.07;;;;;;;3.89;100.00;99711.03;5257382;28;20067;-72
2021/12/05 01:59:15;;;;;;;16.27;5.63;;;;;;;3.76;100.00;99713.72;5249407;28;20040;-72
2021/12/05 02:35:26;;;;;;;;;;;;;;;4.30;100.00;99683.72;5228923;28;20037;-72
2021/12/05 02:43:09;;;;;;;18.38;4.43;;;;;;;3.89;100.00;99679.94;5257499;28;20129;-72
2021/12/05 02:45:45;;;;;;;12.02;4.05;;;;;;;3.91;100.00;99683.25;5258644;28;20029;-71
2021/12/05 02:48:17;;;;;;;13.88;4.20;;;;;;;3.84;100.00;99679.47;5255182;28;20382;-71
2021/12/05 02:50:48;;;;;;;14.75;4.47;;;;;;;3.86;100.00;99674.97;5257831;28;20029;-72
2021/12/05 02:53:28;;;;;;;18.52;4.43;;;;;;;3.82;100.00;99682.16;5258212;28;20028;-71
2021/12/05 02:56:01;;;;;;;15.90;4.82;;;;;;;3.84;100.00;99682.06;5254071;28;20056;-71
2021/12/05 02:58:54;;;;;;;13.65;4.07;;;;;;;3.84;100.00;99687.22;5257906;28;20651;-71
2021/12/05 03:01:42;;;;;;;11.98;3.83;;;;;;;3.92;100.00;99689.25;5255793;28;20499;-72
2021/12/05 03:04:13;;;;;;;16.42;4.50;;;;;;;3.90;100.00;99685.00;5248370;28;20032;-72
2021/12/05 03:06:52;;;;;;;13.32;4.07;;;;;;;3.93;100.00;99691.72;5246812;28;20410;-71
2021/12/05 03:09:24;;;;;;;14.10;3.47;;;;;;;3.97;100.00;99690.53;5252943;28;20021;-71
2021/12/05 03:11:56;;;;;;;13.50;3.88;;;;;;;3.98;100.00;99684.44;5256627;28;20651;-71
2021/12/05 03:14:27;;;;;;;10.85;3.35;;;;;;;3.98;100.00;99681.00;5254216;28;20021;-72
2021/12/05 03:16:58;;;;;;;12.52;3.15;;;;;;;4.00;100.00;99682.53;5246134;28;20031;-72
2021/12/05 03:19:30;;;;;;;11.90;3.78;;;;;;;3.98;100.00;99661.09;5255278;28;20028;-72
2021/12/05 03:22:02;;;;;;;13.07;3.90;;;;;;;4.08;100.00;99674.16;5257578;28;20025;-72
2021/12/05 03:24:34;;;;;;;9.75;3.90;;;;;;;4.09;100.00;99678.41;5257953;28;20435;-72
2021/12/05 03:27:05;;;;;;;11.45;3.30;;;;;;;4.10;100.00;99678.31;5255025;28;20036;-72
2021/12/05 03:29:36;;;;;;;12.52;3.67;;;;;;;4.12;100.00;99675.59;5251133;28;20029;-71
2021/12/05 03:32:08;;;;;;;12.60;3.28;;;;;;;4.15;100.00;99670.16;5257974;28;20066;-71
2021/12/05 03:34:39;;;;;;;8.82;3.58;;;;;;;4.11;100.00;99669.59;5238930;28;20029;-71
2021/12/05 03:37:11;;;;;;;13.70;4.03;;;;;;;4.13;100.00;99672.91;5251922;28;20024;-72
2021/12/05 03:39:42;;;;;;;11.27;3.65;;;;;;;4.15;100.00;99670.16;5257478;28;20028;-72
2021/12/05 03:42:14;;;;;;;10.45;3.83;;;;;;;4.15;100.00;99668.41;5259343;28;20028;-72
2021/12/05 03:44:45;;;;;;;9.55;3.72;;;;;;;4.19;100.00;99671.59;5256108;28;20053;-71
2021/12/05 03:47:18;;;;;;;11.43;3.97;;;;;;;4.19;100.00;99669.00;5255340;28;20226;-71
2021/12/05 03:49:49;;;;;;;11.23;3.47;;;;;;;4.22;100.00;99676.53;5248143;28;20452;-71
2021/12/05 03:52:21;;;;;;;10.63;3.53;;;;;;;4.23;100.00;99680.78;5260058;28;20104;-72
2021/12/05 03:54:52;;;;;;;9.73;3.97;;;;;;;4.24;100.00;99677.22;5260899;28;20033;-72
2021/12/05 03:57:23;;;;;;;9.50;3.90;;;;;;;4.30;100.00;99679.38;5258622;28;20029;-71
2021/12/05 03:59:55;;;;;;;7.80;3.83;;;;;;;4.29;100.00;99677.72;5261454;28;20612;-72
2021/12/05 04:02:26;;;;;;;8.65;3.75;;;;;;;4.33;100.00;99684.31;5261295;28;20039;-72
2021/12/05 04:04:58;;;;;;;11.18;4.10;;;;;;;4.34;100.00;99675.59;5261326;28;20032;-72
2021/12/05 04:07:29;;;;;;;10.77;3.78;;;;;;;4.37;100.00;99677.13;5245747;28;20133;-71
2021/12/05 04:10:00;;;;;;;10.70;4.13;;;;;;;4.41;100.00;99680.31;5251589;28;20033;-72
2021/12/05 04:12:32;;;;;;;7.80;4.20;;;;;;;4.42;100.00;99680.19;5241648;28;20028;-72
2021/12/05 04:15:05;;;;;;;8.77;3.90;;;;;;;4.44;100.00;99677.47;5253353;28;20020;-72
2021/12/05 04:17:37;;;;;;;9.70;4.03;;;;;;;4.45;100.00;99681.72;5243817;28;20095;-72
2021/12/05 04:20:12;;;;;;;6.95;3.22;;;;;;;4.54;100.00;99684.41;5253242;28;20477;-72
2021/12/05 04:22:45;;;;;;;8.50;3.40;;;;;;;4.48;100.00;99684.91;5257273;28;20102;-72
2021/12/05 04:25:17;;;;;;;13.13;3.50;;;;;;;4.53;100.00;99682.75;5256925;28;20040;-72
2021/12/05 04:27:51;;;;;;;9.50;3.38;;;;;;;4.59;100.00;99691.84;5258514;28;20490;-71
2021/12/05 04:30:24;;;;;;;8.93;3.08;;;;;;;4.57;100.00;99684.16;5245795;28;20128;-72
2021/12/05 04:32:55;;;;;;;11.43;3.60;;;;;;;4.60;100.00;99690.88;5250603;28;20363;-72
2021/12/05 04:35:27;;;;;;;8.88;2.90;;;;;;;4.59;100.00;99684.88;5260429;28;20021;-72
2021/12/05 04:37:58;;;;;;;11.48;3.60;;;;;;;4.60;100.00;99683.09;5247822;28;20068;-72
2021/12/05 04:40:32;;;;;;;7.68;2.95;;;;;;;4.59;100.00;99689.25;5260816;28;20102;-72
2021/12/05 04:43:05;;;;;;;7.20;3.92;;;;;;;4.58;100.00;99693.63;5260760;28;20518;-72
2021/12/05 04:45:37;;;;;;;9.73;3.45;;;;;;;4.61;100.00;99688.16;5258299;28;20401;-72
2021/12/05 04:48:09;;;;;;;7.00;2.78;;;;;;;4.61;100.00;99685.56;5240121;28;20029;-72
2021/12/05 04:50:42;;;;;;;8.45;3.17;;;;;;;4.61;100.00;99685.56;5260118;28;20092;-71
2021/12/05 04:53:14;;;;;;;8.50;2.85;;;;;;;4.61;100.00;99688.16;5259984;28;20037;-72
2021/12/05 04:55:45;;;;;;;8.27;3.22;;;;;;;4.61;100.00;99687.34;5259453;28;20094;-72
2021/12/05 04:58:16;;;;;;;11.43;2.80;;;;;;;4.64;100.00;99684.50;5239436;28;20025;-72
2021/12/05 05:00:48;;;;;;;9.88;3.17;;;;;;;4.61;100.00;99682.97;5247496;28;20024;-71
2021/12/05 05:03:19;;;;;;;9.35;2.95;;;;;;;4.63;100.00;99677.69;5251253;28;20028;-71
2021/12/05 05:05:59;;;;;;;9.70;2.83;;;;;;;4.61;100.00;99682.97;5237608;28;20036;-71
2021/12/05 05:08:31;;;;;;;6.65;2.95;;;;;;;4.61;100.00;99676.97;5252838;28;20395;-71
2021/12/05 05:11:07;;;;;;;7.85;2.90;;;;;;;4.70;100.00;99680.59;5249373;28;20483;-71
2021/12/05 05:13:39;;;;;;;11.50;3.75;;;;;;;4.66;100.00;99689.56;5244405;28;20032;-71
2021/12/05 05:16:13;;;;;;;4.88;2.58;;;;;;;4.62;100.00;99684.66;5248274;28;20080;-72
2021/12/05 05:18:49;;;;;;;9.23;2.60;;;;;;;4.66;100.00;99686.97;5247112;28;20047;-71
2021/12/05 05:21:43;;;;;;;7.35;2.88;;;;;;;4.66;100.00;99685.22;5259868;28;20028;-72
2021/12/05 05:24:33;;;;;;;10.02;2.75;;;;;;;4.62;100.00;99692.44;5259773;28;20033;-71
2021/12/05 05:42:03;;;;;;;4.20;2.10;;;;;;;4.64;100.00;99715.66;5258771;28;20025;-71
2021/12/05 05:44:36;;;;;;;7.20;2.30;;;;;;;4.64;100.00;99707.84;5259043;28;20049;-71
2021/12/05 05:52:18;;;;;;;3.00;2.05;;;;;;;4.56;100.00;99724.03;5254136;28;20545;-71
2021/12/05 05:54:51;;;;;;;2.88;1.55;;;;;;;4.54;100.00;99722.47;5256502;28;20111;-72
2021/12/05 05:57:35;;;;;;;3.92;1.83;;;;;;;4.52;100.00;99716.59;5256297;28;20026;-72
2021/12/05 06:00:28;;;;;;;3.53;1.90;;;;;;;4.68;100.00;99729.19;5249036;28;20033;-72
2021/12/05 06:06:04;;;;;;;4.15;1.83;;;;;;;4.59;100.00;99728.97;5237753;28;20072;-72
2021/12/05 06:08:39;;;;;;;4.20;2.40;;;;;;;4.52;100.00;99730.41;5239412;28;20040;-71
2021/12/05 06:11:14;;;;;;;2.58;1.90;;;;;;;4.49;100.00;99735.00;5255254;28;20464;-71
2021/12/05 06:13:46;;;;;;;3.22;1.80;;;;;;;4.44;100.00;99732.75;5253612;28;20013;-71
2021/12/05 06:16:18;;;;;;;4.13;1.83;;;;;;;4.41;100.00;99726.97;5246935;28;20028;-72
2021/12/05 06:18:49;;;;;;;4.30;1.92;;;;;;;4.43;100.00;99735.44;5252624;28;20127;-72
2021/12/05 06:21:21;;;;;;;4.07;1.60;;;;;;;4.39;100.00;99732.28;5257881;28;20537;-72
2021/12/05 06:23:53;;;;;;;2.72;1.67;;;;;;;4.35;100.00;99736.03;5258334;28;20513;-72
2021/12/05 06:26:24;;;;;;;3.88;2.00;;;;;;;4.32;100.00;99733.72;5258921;28;20020;-73
2021/12/05 06:29:08;;;;;;;3.85;1.80;;;;;;;4.34;100.00;99737.00;5255392;28;20060;-72
2021/12/05 06:37:29;;;;;;;3.85;1.90;;;;;;;4.36;100.00;99743.72;5252007;28;20499;-71
2021/12/05 06:40:20;;;;;;;2.80;1.95;;;;;;;4.33;100.00;99743.13;5250645;28;20025;-72
2021/12/05 06:43:01;;;;;;;3.65;2.10;;;;;;;4.37;100.00;99754.91;5258262;28;20112;-72
2021/12/05 06:48:23;;;;;;;2.92;1.85;;;;;;;4.36;100.00;99761.88;5249273;28;20029;-72
2021/12/05 06:50:54;;;;;;;3.40;2.00;;;;;;;4.42;100.00;99759.75;5244008;28;20471;-71
2021/12/05 06:53:25;;;;;;;4.65;2.13;;;;;;;4.43;100.00;99764.78;5258537;28;20040;-71
2021/12/05 06:55:57;;;;;;;3.67;1.92;;;;;;;4.44;100.00;99761.28;5258481;28;20107;-71
2021/12/05 06:58:29;;;;;;;3.90;2.15;;;;;;;4.48;100.00;99769.66;5237900;28;20077;-71
2021/12/05 07:01:01;;;;;;;3.03;1.95;;;;;;;4.46;100.00;99774.94;5254701;28;20037;-71
2021/12/05 07:03:34;;;;;;;5.18;2.40;;;;;;;4.53;100.00;99780.50;5257659;28;20029;-71
2021/12/05 07:06:20;;;;;;;3.83;2.10;;;;;;;4.60;100.00;99786.88;5250768;28;20037;-72
2021/12/05 07:08:54;;;;;;;2.78;2.08;;;;;;;4.54;100.00;99795.94;5251794;28;20029;-71
2021/12/05 07:11:31;;;;;;;4.68;2.40;;;;;;;4.52;100.00;99797.81;5247082;28;20533;-71
2021/12/05 07:14:31;;;;;;;4.40;2.20;;;;;;;4.51;100.00;99801.38;5255394;28;20029;-71
2021/12/05 07:20:05;;;;;;;4.15;2.58;;;;;;;4.61;100.00;99801.47;5228763;28;20079;-72
2021/12/05 07:22:52;;;;;;;4.87;2.87;;;;;;;4.56;100.00;99811.38;5249655;28;20033;-72
2021/12/05 07:25:44;;;;;;;4.25;2.95;;;;;;;4.57;100.00;99811.25;5252672;28;20052;-71
2021/12/05 07:42:26;;;;;;;4.30;3.20;;;;;;;4.68;100.00;99835.56;5259690;28;20021;-71
2021/12/05 07:45:01;;;;;;;5.77;3.57;;;;;;;4.71;100.00;99828.38;5256624;28;20429;-71
2021/12/05 07:47:34;;;;;;;5.70;3.13;;;;;;;4.71;100.00;99836.16;5257136;28;20028;-71
2021/12/05 07:50:09;;;;;;;5.35;3.20;;;;;;;4.73;100.00;99842.03;5242760;28;20017;-71
2021/12/05 07:52:44;;;;;;;6.45;3.58;;;;;;;4.76;100.00;99846.19;5263953;28;20070;-71
2021/12/05 07:55:26;;;;;;;5.38;3.92;;;;;;;4.77;100.00;99843.50;5265625;28;20052;-71
2021/12/05 07:58:10;;;;;;;4.35;3.10;;;;;;;4.77;100.00;99846.09;5253247;28;20356;-72
2021/12/05 08:01:05;;;;;;;4.72;3.58;;;;;;;4.79;100.00;99854.56;5251796;28;20025;-71
2021/12/05 08:15:11;;;;;;;4.32;3.20;;;;;;;4.95;100.00;99866.34;5254600;28;20033;-71
2021/12/05 08:17:51;;;;;;;4.85;3.55;;;;;;;4.97;100.00;99861.88;5254995;28;20033;-72
2021/12/05 08:20:28;;;;;;;4.75;3.40;;;;;;;5.03;100.00;99872.59;5251011;28;20029;-71
2021/12/05 08:23:01;;;;;;;6.25;3.30;;;;;;;4.95;100.00;99864.59;5250560;28;20473;-72
2021/12/05 08:25:37;;;;;;;3.80;3.35;;;;;;;5.01;100.00;99866.72;5250084;28;20025;-71
2021/12/05 08:28:27;;;;;;;4.68;3.22;;;;;;;4.98;100.00;99866.94;5251461;28;20033;-71
2021/12/05 08:31:17;;;;;;;6.40;3.25;;;;;;;5.02;100.00;99870.97;5244987;28;20070;-71
2021/12/05 08:34:05;;;;;;;4.32;3.50;;;;;;;5.05;100.00;99878.50;5250690;28;20028;-71
2021/12/05 09:22:47;;;;;;;3.92;2.90;;;;;;;5.15;100.00;99933.13;5258416;28;20056;-71
2021/12/05 09:28:31;;;;;;;5.22;3.25;;;;;;;5.13;100.00;99937.63;5234826;28;20036;-71
2021/12/05 10:07:30;;;;;;;7.32;6.15;;;;;;;5.22;100.00;99994.03;5254779;28;20375;-71
2021/12/05 10:13:30;;;;;;;6.90;6.25;;;;;;;5.21;100.00;100004.56;5168126;28;20041;-72
2021/12/05 10:19:30;;;;;;;8.98;6.80;;;;;;;5.32;100.00;100007.16;5253621;28;20588;-72
2021/12/05 10:36:00;;;;;;;9.27;6.80;;;;;;;5.44;100.00;100029.59;5248278;28;20033;-72
2021/12/05 10:38:52;;;;;;;7.15;6.45;;;;;;;5.53;100.00;100028.91;5255800;28;20108;-72
2021/12/05 10:44:09;;;;;;;6.22;5.63;;;;;;;5.58;100.00;100036.34;5250302;28;20056;-72
2021/12/05 10:46:48;;;;;;;6.50;5.25;;;;;;;5.52;100.00;100027.25;5249265;28;20029;-72
2021/12/05 10:49:19;;;;;;;5.53;5.03;;;;;;;5.45;100.00;100036.44;5254446;28;20360;-72
2021/12/05 10:51:57;;;;;;;6.28;5.22;;;;;;;5.49;100.00;100032.69;5255653;28;20021;-71
2021/12/05 10:54:29;;;;;;;7.72;5.22;;;;;;;5.45;100.00;100035.63;5254526;28;20013;-72
2021/12/05 10:57:03;;;;;;;5.40;4.90;;;;;;;5.54;100.00;100033.16;5255007;28;20028;-72
2021/12/05 10:59:39;;;;;;;6.20;5.60;;;;;;;5.60;100.00;100044.84;5251348;28;20029;-72
2021/12/05 11:02:16;;;;;;;6.18;5.30;;;;;;;5.60;100.00;100043.06;5252191;28;20127;-72
2021/12/05 11:04:49;;;;;;;5.25;4.45;;;;;;;5.53;100.00;100047.09;5251817;28;20451;-72
2021/12/05 11:07:23;;;;;;;4.88;4.30;;;;;;;5.56;100.00;100046.84;5249649;28;20033;-72
2021/12/05 11:09:57;;;;;;;;;;;;;;;6.08;100.00;100048.03;5256138;28;20080;-72
2021/12/05 11:12:34;;;;;;;5.63;3.80;;;;;;;5.70;100.00;100052.78;5253595;28;21881;-72
2021/12/05 11:15:13;;;;;;;4.40;3.42;;;;;;;5.69;100.00;100051.94;5250567;28;20036;-71
2021/12/05 11:17:49;;;;;;;4.47;3.03;;;;;;;5.63;100.00;100043.78;5251424;28;20029;-72
2021/12/05 11:20:30;;;;;;;3.38;3.08;;;;;;;5.70;100.00;100040.59;5253839;28;20035;-72
2021/12/05 11:23:01;;;;;;;3.65;2.67;;;;;;;5.69;100.00;100048.53;5250276;28;20027;-72
2021/12/05 11:25:38;;;;;;;3.30;2.70;;;;;;;5.75;100.00;100053.22;5253966;28;20466;-72
2021/12/05 11:28:11;;;;;;;2.95;2.60;;;;;;;5.78;100.00;100045.19;5252036;28;20032;-72
2021/12/05 11:30:45;;;;;;;3.40;2.75;;;;;;;5.84;100.00;100057.72;5255241;28;20021;-72
2021/12/05 11:33:21;;;;;;;3.95;3.20;;;;;;;5.85;100.00;100059.38;5251744;28;20064;-72
2021/12/05 11:35:58;;;;;;;3.58;3.28;;;;;;;5.88;100.00;100066.13;5253960;28;20547;-73
2021/12/05 11:38:34;;;;;;;3.63;3.17;;;;;;;5.92;100.00;100063.19;5250820;28;20024;-72
2021/12/05 11:41:11;;;;;;;3.63;3.30;;;;;;;5.97;100.00;100068.84;5253294;28;20033;-72
2021/12/05 11:43:46;;;;;;;4.40;3.30;;;;;;;5.98;100.00;100070.50;5250909;28;20534;-70
2021/12/05 11:46:25;;;;;;;4.07;3.60;;;;;;;5.98;100.00;100075.69;5243533;28;20063;-70
2021/12/05 11:49:02;;;;;;;4.43;4.03;;;;;;;5.92;100.00;100080.53;5251224;28;20227;-70
2021/12/05 11:51:56;;;;;;;4.93;4.40;;;;;;;6.04;100.00;100084.81;5252924;28;20024;-70
2021/12/05 11:54:31;;;;;;;5.15;4.68;;;;;;;5.97;100.00;100094.03;5251656;28;20049;-70
2021/12/05 11:57:05;;;;;;;5.47;4.97;;;;;;;5.99;100.00;100092.97;5254358;28;20714;-73
2021/12/05 11:59:48;;;;;;;;;;;;;;;6.62;100.00;100094.97;5250203;28;20424;-70
2021/12/05 12:02:22;;;;;;;5.70;5.18;;;;;;;6.19;100.00;100096.59;5244096;28;19913;-70
2021/12/05 12:05:08;;;;;;;6.63;5.93;;;;;;;6.25;100.00;100100.47;5252249;28;21004;-70
2021/12/05 12:08:02;;;;;;;6.75;6.15;;;;;;;6.34;100.00;100103.19;5254434;28;20032;-70
2021/12/05 12:10:49;;;;;;;6.90;6.30;;;;;;;6.28;100.00;100102.84;5257159;28;20030;-70
2021/12/05 12:13:24;;;;;;;7.20;6.60;;;;;;;6.19;100.00;100107.00;5258146;28;20496;-70
2021/12/05 12:16:00;;;;;;;7.45;6.75;;;;;;;6.20;100.00;100106.06;5257848;28;20021;-70
2021/12/05 12:18:36;;;;;;;7.93;7.22;;;;;;;6.22;100.00;100101.56;5258154;28;20142;-70
2021/12/05 12:21:19;;;;;;;7.78;7.07;;;;;;;6.34;100.00;100103.19;5259040;28;20029;-70
2021/12/05 12:23:54;;;;;;;7.15;6.55;;;;;;;6.29;100.00;100104.53;5256474;28;20033;-70
2021/12/05 12:26:26;;;;;;;7.03;6.35;;;;;;;6.27;100.00;100104.63;5261115;28;20037;-70
2021/12/05 12:28:58;;;;;;;7.35;6.65;;;;;;;6.36;100.00;100110.88;5252871;28;20543;-70
2021/12/05 12:31:36;;;;;;;6.70;6.10;;;;;;;6.48;100.00;100106.50;5251234;28;20025;-70
2021/12/05 12:34:13;;;;;;;6.53;5.93;;;;;;;6.42;100.00;100115.59;5256998;28;20048;-70
2021/12/05 12:36:48;;;;;;;7.53;6.13;;;;;;;6.45;100.00;100120.56;5258940;28;20557;-70
2021/12/05 12:39:20;;;;;;;7.07;6.38;;;;;;;6.40;100.00;100130.50;5256745;28;20658;-70
2021/12/05 12:42:03;;;;;;;6.75;6.13;;;;;;;6.54;100.00;100119.81;5253221;28;20033;-70
2021/12/05 12:44:34;;;;;;;7.43;6.75;;;;;;;6.42;100.00;100131.22;5258579;28;20095;-71
2021/12/05 12:47:06;;;;;;;7.60;6.90;;;;;;;6.42;100.00;100139.03;5255187;28;20030;-70
2021/12/05 12:49:39;;;;;;;7.20;6.50;;;;;;;6.39;100.00;100136.66;5252404;28;20021;-70
2021/12/05 12:52:14;;;;;;;7.57;6.72;;;;;;;6.41;100.00;100139.16;5255208;28;20059;-70
2021/12/05 12:54:52;;;;;;;7.13;6.38;;;;;;;6.41;100.00;100139.97;5258907;28;20425;-70
2021/12/05 12:57:29;;;;;;;6.63;6.03;;;;;;;6.36;100.00;100136.88;5256504;28;20281;-70
2021/12/05 13:00:08;;;;;;;7.18;5.93;;;;;;;6.41;100.00;100146.97;5254241;28;20037;-70
2021/12/05 13:05:41;;;;;;;6.20;5.20;;;;;;;6.29;100.00;100149.56;5244051;28;20033;-70
2021/12/05 13:11:21;;;;;;;6.88;6.20;;;;;;;6.30;100.00;100153.81;5255121;28;20305;-70
2021/12/05 13:14:04;;;;;;;6.80;6.18;;;;;;;6.40;100.00;100156.50;5252642;28;20067;-70
2021/12/05 13:16:36;;;;;;;6.77;6.17;;;;;;;6.28;100.00;100160.06;5254187;28;20474;-70
2021/12/05 13:19:32;;;;;;;6.97;6.38;;;;;;;6.41;100.00;100163.41;5251101;28;20036;-70
2021/12/05 13:22:07;;;;;;;6.20;5.60;;;;;;;6.38;100.00;100165.41;5256553;28;20391;-70
2021/12/05 13:24:45;;;;;;;6.47;5.88;;;;;;;6.27;100.00;100166.25;5249637;28;20017;-70
2021/12/05 13:27:29;;;;;;;6.55;5.95;;;;;;;6.41;100.00;100170.38;5255094;28;20029;-70
2021/12/05 13:30:01;;;;;;;5.75;5.25;;;;;;;6.24;100.00;100169.91;5260751;28;20082;-70
2021/12/05 13:32:32;;;;;;;6.03;5.22;;;;;;;6.28;100.00;100178.28;5249709;28;20312;-70
2021/12/05 13:35:08;;;;;;;6.10;5.50;;;;;;;6.30;100.00;100179.00;5254249;28;20021;-70
2021/12/05 13:37:48;;;;;;;5.63;5.13;;;;;;;6.27;100.00;100187.03;5261752;28;20079;-70
2021/12/05 13:40:27;;;;;;;5.70;5.10;;;;;;;6.34;100.00;100196.03;5255527;28;20381;-70
2021/12/05 13:43:06;;;;;;;6.43;4.78;;;;;;;6.32;100.00;100198.72;5246599;28;20037;-70
2021/12/05 13:45:43;;;;;;;5.85;5.25;;;;;;;6.24;100.00;100205.47;5261590;28;20540;-70
2021/12/05 13:48:17;;;;;;;5.82;5.22;;;;;;;6.27;100.00;100203.47;5259022;28;20032;-70
2021/12/05 13:50:57;;;;;;;6.25;5.40;;;;;;;6.36;100.00;100206.31;5250297;28;20033;-70
2021/12/05 13:53:32;;;;;;;7.22;5.90;;;;;;;6.31;100.00;100204.91;5253053;28;20043;-70
2021/12/05 13:56:11;;;;;;;7.78;6.63;;;;;;;6.39;100.00;100204.28;5253686;28;20032;-70
2021/12/05 13:58:46;;;;;;;7.88;6.85;;;;;;;6.32;100.00;100205.72;5254411;28;20052;-71
2021/12/05 14:01:31;;;;;;;7.40;6.70;;;;;;;6.41;100.00;100205.03;5251149;28;20092;-71
2021/12/05 14:04:18;;;;;;;7.85;7.07;;;;;;;6.48;100.00;100208.81;5250981;28;20083;-71
2021/12/05 14:06:54;;;;;;;9.27;6.90;;;;;;;6.33;100.00;100216.03;5256109;28;20037;-71
2021/12/05 14:09:33;;;;;;;8.55;7.05;;;;;;;6.42;100.00;100217.06;5254786;28;20552;-71
2021/12/05 14:12:08;;;;;;;7.45;6.75;;;;;;;6.41;100.00;100223.22;5247905;28;20032;-71
2021/12/05 14:14:43;;;;;;;7.38;6.68;;;;;;;6.40;100.00;100228.53;5248547;28;20386;-71
2021/12/05 14:17:21;;;;;;;7.50;6.70;;;;;;;6.31;100.00;100224.88;5250632;28;20033;-71
2021/12/05 14:19:57;;;;;;;7.30;6.60;;;;;;;6.32;100.00;100235.16;5252286;28;20030;-71
2021/12/05 14:22:33;;;;;;;7.07;6.45;;;;;;;6.35;100.00;100239.31;5240384;28;20505;-71
2021/12/05 14:25:11;;;;;;;7.60;6.78;;;;;;;6.39;100.00;100245.09;5245811;28;20116;-70
2021/12/05 14:27:55;;;;;;;7.43;6.50;;;;;;;6.29;100.00;100250.19;5253168;28;20135;-71
2021/12/05 14:30:29;;;;;;;6.72;6.13;;;;;;;6.25;100.00;100260.00;5255910;28;20090;-71
2021/12/05 14:33:02;;;;;;;8.43;6.57;;;;;;;6.24;100.00;100260.94;5257714;28;20021;-71
2021/12/05 14:35:38;;;;;;;7.30;6.60;;;;;;;6.33;100.00;100267.22;5253815;28;20032;-71
2021/12/05 14:38:09;;;;;;;6.13;5.53;;;;;;;6.24;100.00;100278.31;5250129;28;20037;-71
2021/12/05 14:40:40;;;;;;;7.88;6.28;;;;;;;6.27;100.00;100280.69;5244646;28;20028;-71
2021/12/05 14:43:13;;;;;;;6.30;5.70;;;;;;;6.27;100.00;100284.13;5245964;28;20128;-71
2021/12/05 14:45:44;;;;;;;6.60;6.00;;;;;;;6.32;100.00;100281.16;5251895;28;20057;-71
2021/12/05 14:48:16;;;;;;;6.55;5.95;;;;;;;6.31;100.00;100292.53;5243617;28;20303;-71
2021/12/05 14:50:53;;;;;;;6.93;6.32;;;;;;;6.40;100.00;100293.59;5256208;28;20075;-71
2021/12/05 14:53:25;;;;;;;6.63;6.03;;;;;;;6.27;100.00;100299.72;5240966;28;20525;-71
2021/12/05 14:55:58;;;;;;;6.13;5.53;;;;;;;6.26;100.00;100298.06;5249259;28;20036;-71
2021/12/05 14:58:31;;;;;;;9.55;6.50;;;;;;;6.27;100.00;100298.91;5253980;28;20029;-71
2021/12/05 15:01:02;;;;;;;7.55;6.82;;;;;;;6.31;100.00;100306.34;5257234;28;20024;-71
2021/12/05 15:03:34;;;;;;;6.65;6.05;;;;;;;6.27;100.00;100312.72;5253937;28;20029;-71
2021/12/05 15:06:07;;;;;;;7.15;6.55;;;;;;;6.29;100.00;100320.44;5251763;28;20368;-71
2021/12/05 15:08:38;;;;;;;8.68;6.80;;;;;;;6.29;100.00;100321.25;5248467;28;20068;-71
2021/12/05 15:11:10;;;;;;;7.68;6.97;;;;;;;6.29;100.00;100333.44;5248709;28;20072;-71
2021/12/05 15:13:41;;;;;;;8.60;7.80;;;;;;;6.27;100.00;100336.16;5248398;28;20469;-71
2021/12/05 15:16:14;;;;;;;8.90;8.00;;;;;;;6.28;100.00;100343.00;5252444;28;20025;-71
2021/12/05 15:18:46;;;;;;;11.73;8.65;;;;;;;6.21;100.00;100338.38;5254602;28;20029;-71
2021/12/05 15:21:17;;;;;;;10.32;9.32;;;;;;;6.22;100.00;100353.88;5251781;28;20033;-71
2021/12/05 15:23:48;;;;;;;8.98;8.15;;;;;;;6.27;100.00;100354.34;5255676;28;20040;-71
2021/12/05 15:26:20;;;;;;;9.75;8.75;;;;;;;6.23;100.00;100359.91;5256145;28;20067;-71
2021/12/05 15:29:00;;;;;;;10.52;9.40;;;;;;;6.39;100.00;100370.81;5244157;28;20033;-71
2021/12/05 15:31:37;;;;;;;11.20;10.02;;;;;;;6.38;100.00;100382.19;5249165;28;20060;-71
2021/12/05 15:34:27;;;;;;;12.23;9.57;;;;;;;6.50;100.00;100383.03;5257366;28;20025;-71
2021/12/05 15:37:06;;;;;;;11.50;10.30;;;;;;;6.31;100.00;100388.78;5256064;28;20025;-71
2021/12/05 15:39:42;;;;;;;11.27;10.02;;;;;;;6.33;100.00;100389.50;5248568;28;20026;-70
2021/12/05 15:42:26;;;;;;;11.77;10.57;;;;;;;6.31;100.00;100388.78;5241225;28;20021;-71
2021/12/05 15:44:59;;;;;;;13.23;10.93;;;;;;;6.30;100.00;100394.94;5252174;28;20044;-71
2021/12/05 15:47:33;;;;;;;13.60;12.25;;;;;;;6.28;100.00;100402.81;5256952;28;20029;-71
2021/12/05 15:50:16;;;;;;;13.95;12.55;;;;;;;6.44;100.00;100405.16;5251648;28;20098;-70
2021/12/05 15:52:55;;;;;;;11.43;10.27;;;;;;;6.41;100.00;100410.56;5253353;28;20033;-71
2021/12/05 15:55:38;;;;;;;10.43;9.27;;;;;;;6.31;100.00;100409.59;5250270;28;20017;-71
2021/12/05 15:58:30;;;;;;;11.13;9.15;;;;;;;6.40;100.00;100414.09;5256033;28;20620;-71
2021/12/05 16:01:06;;;;;;;9.90;8.90;;;;;;;6.28;100.00;100425.41;5246481;28;20112;-71
2021/12/05 16:03:55;;;;;;;9.55;8.60;;;;;;;6.43;100.00;100426.88;5249072;28;20061;-71
2021/12/05 16:06:39;;;;;;;10.85;7.65;;;;;;;6.34;100.00;100435.38;5255187;28;20033;-71
2021/12/05 16:09:15;;;;;;;;;;;;;;;6.80;100.00;100427.56;5254085;28;20051;-71
2021/12/05 16:11:50;;;;;;;8.60;7.72;;;;;;;6.22;100.00;100441.50;5254888;28;19916;-71
2021/12/05 16:14:29;;;;;;;8.90;7.70;;;;;;;6.21;100.00;100448.47;5256394;28;20438;-71
2021/12/05 16:17:01;;;;;;;8.27;7.35;;;;;;;6.08;100.00;100445.91;5254236;28;20536;-71
2021/12/05 16:19:35;;;;;;;7.85;7.05;;;;;;;6.09;100.00;100455.38;5254519;28;20020;-70
2021/12/05 16:22:08;;;;;;;8.27;7.47;;;;;;;6.11;100.00;100452.66;5253283;28;20579;-71
2021/12/05 16:24:40;;;;;;;;;;;;;;;6.71;100.00;100453.47;5260023;28;20033;-71
2021/12/05 16:27:11;;;;;;;8.52;7.63;;;;;;;6.14;100.00;100470.66;5254777;28;19919;-71
2021/12/05 16:29:43;;;;;;;8.55;7.32;;;;;;;6.08;100.00;100471.91;5256441;28;20465;-71
2021/12/05 16:32:14;;;;;;;8.13;6.97;;;;;;;6.09;100.00;100477.94;5250204;28;20108;-71
2021/12/05 16:34:49;;;;;;;8.25;7.32;;;;;;;6.03;100.00;100481.81;5247632;28;20071;-71
2021/12/05 16:37:20;;;;;;;8.27;6.70;;;;;;;6.03;100.00;100486.19;5239861;28;20025;-71
2021/12/05 16:39:55;;;;;;;9.07;7.60;;;;;;;6.04;100.00;100491.28;5240237;28;20071;-71
2021/12/05 16:42:26;;;;;;;8.60;7.75;;;;;;;6.00;100.00;100489.03;5255223;28;20505;-71
2021/12/05 16:44:59;;;;;;;8.70;7.38;;;;;;;5.97;100.00;100495.25;5257758;28;20049;-71
2021/12/05 16:47:32;;;;;;;9.30;7.13;;;;;;;5.96;100.00;100493.59;5261139;28;20429;-71
2021/12/05 16:50:07;;;;;;;8.25;7.35;;;;;;;6.00;100.00;100492.44;5250891;28;20545;-71
2021/12/05 16:52:46;;;;;;;8.63;7.50;;;;;;;6.04;100.00;100496.47;5254531;28;20513;-71
2021/12/05 16:55:27;;;;;;;9.77;8.55;;;;;;;6.00;100.00;100495.03;5260422;28;20025;-71
2021/12/05 16:58:14;;;;;;;8.88;7.65;;;;;;;6.06;100.00;100499.81;5254862;28;20120;-71
2021/12/05 17:00:51;;;;;;;8.98;8.02;;;;;;;6.11;100.00;100502.09;5252178;28;20075;-71
2021/12/05 17:03:28;;;;;;;8.82;7.93;;;;;;;6.09;100.00;100502.19;5260427;28;20478;-71
2021/12/05 17:06:09;;;;;;;9.77;8.27;;;;;;;6.03;100.00;100507.00;5254539;28;20060;-71
2021/12/05 17:08:45;;;;;;;8.88;7.53;;;;;;;6.02;100.00;100513.13;5248576;28;20031;-71
2021/12/05 17:11:18;;;;;;;9.25;8.25;;;;;;;6.04;100.00;100517.28;5251185;28;20112;-71
2021/12/05 17:13:52;;;;;;;9.35;7.65;;;;;;;6.09;100.00;100524.75;5239820;28;20390;-71